createdAt,value
2019-02-22T00:01:26.257Z,23.60
2019-02-22T00:03:52.925Z,21.60
2019-02-22T00:06:19.579Z,24.27
2019-02-22T00:08:47.201Z,21.63
2019-02-22T00:11:14.046Z,20.63
2019-02-22T00:13:40.835Z,20.47
2019-02-22T00:16:07.616Z,22.43
2019-02-22T00:18:34.438Z,19.40
2019-02-22T00:21:01.127Z,20.60
2019-02-22T00:23:27.754Z,19.07
2019-02-22T00:25:54.763Z,17.90
2019-02-22T00:28:21.714Z,16.93
2019-02-22T00:30:48.465Z,16.70
2019-02-22T00:33:15.082Z,16.83
2019-02-22T00:35:41.870Z,15.27
2019-02-22T00:38:08.731Z,15.20
2019-02-22T00:40:35.501Z,14.60
2019-02-22T00:43:02.304Z,15.10
2019-02-22T00:45:29.111Z,13.80
2019-02-22T00:47:55.790Z,13.90
2019-02-22T00:50:22.418Z,13.20
2019-02-22T00:52:49.064Z,13.53
2019-02-22T00:55:15.842Z,14.70
2019-02-22T00:57:42.503Z,13.07
2019-02-22T01:00:09.165Z,14.80
2019-02-22T01:02:35.789Z,13.80
2019-02-22T01:05:02.457Z,14.33
2019-02-22T01:07:29.089Z,13.80
2019-02-22T01:09:55.872Z,15.37
2019-02-22T01:12:22.533Z,12.70
2019-02-22T01:14:49.228Z,12.47
2019-02-22T01:17:15.855Z,14.37
2019-02-22T01:19:42.592Z,14.73
2019-02-22T01:22:09.365Z,12.97
2019-02-22T01:24:36.012Z,12.80
2019-02-22T01:27:02.688Z,13.40
2019-02-22T01:29:29.333Z,13.13
2019-02-22T01:31:56.085Z,12.90
2019-02-22T01:34:22.761Z,11.53
2019-02-22T01:36:49.569Z,12.63
2019-02-22T01:39:16.272Z,13.37
2019-02-22T01:41:42.910Z,12.60
2019-02-22T01:44:20.945Z,13.37
2019-02-22T01:46:47.588Z,13.70
2019-02-22T01:49:14.278Z,12.40
2019-02-22T01:51:40.935Z,11.20
2019-02-22T01:54:07.637Z,12.73
2019-02-22T01:56:34.409Z,14.00
2019-02-22T01:59:01.102Z,11.47
2019-02-22T02:01:27.778Z,12.17
2019-02-22T02:03:54.442Z,11.30
2019-02-22T02:06:21.104Z,14.37
2019-02-22T02:11:23.077Z,12.30
2019-02-22T02:13:49.745Z,12.50
2019-02-22T02:16:16.419Z,12.40
2019-02-22T02:18:43.171Z,12.50
2019-02-22T02:21:09.829Z,11.50
2019-02-22T02:23:36.477Z,10.73
2019-02-22T02:26:03.291Z,10.20
2019-02-22T02:28:29.910Z,9.87
2019-02-22T02:30:56.614Z,9.83
2019-02-22T02:33:23.230Z,11.00
2019-02-22T02:35:50.069Z,9.90
2019-02-22T02:38:16.709Z,10.97
2019-02-22T02:40:43.386Z,11.17
2019-02-22T02:43:10.023Z,10.60
2019-02-22T02:45:36.727Z,9.57
2019-02-22T02:48:03.330Z,8.30
2019-02-22T02:50:30.192Z,9.33
2019-02-22T02:52:56.942Z,8.13
2019-02-22T02:55:29.203Z,9.33
2019-02-22T02:57:55.942Z,7.47
2019-02-22T03:00:22.569Z,7.80
2019-02-22T03:02:49.262Z,7.70
2019-02-22T03:05:15.990Z,6.53
2019-02-22T03:07:44.080Z,7.50
2019-02-22T03:10:10.790Z,6.80
2019-02-22T03:12:37.499Z,7.00
2019-02-22T03:15:06.437Z,7.77
2019-02-22T03:17:33.122Z,8.10
2019-02-22T03:19:59.745Z,8.17
2019-02-22T03:22:26.440Z,8.00
2019-02-22T03:24:53.750Z,8.60
2019-02-22T03:27:20.482Z,8.57
2019-02-22T03:29:47.097Z,7.90
2019-02-22T03:32:13.873Z,7.70
2019-02-22T03:34:40.534Z,8.07
2019-02-22T03:37:07.367Z,7.77
2019-02-22T03:39:34.083Z,8.03
2019-02-22T03:42:00.947Z,9.67
2019-02-22T03:44:27.792Z,9.30
2019-02-22T03:46:54.425Z,10.10
2019-02-22T03:49:21.051Z,10.17
2019-02-22T03:51:47.742Z,9.63
2019-02-22T03:54:14.413Z,9.53
2019-02-22T03:56:41.201Z,8.30
2019-02-22T03:59:07.891Z,10.90
2019-02-22T04:01:34.767Z,10.00
2019-02-22T04:04:01.414Z,9.27
2019-02-22T04:06:28.069Z,8.77
2019-02-22T04:08:54.720Z,9.20
2019-02-22T04:11:23.286Z,10.10
2019-02-22T04:13:49.937Z,9.40
2019-02-22T04:16:16.622Z,10.30
2019-02-22T04:18:44.502Z,10.07
2019-02-22T04:21:11.169Z,9.83
2019-02-22T04:23:37.916Z,9.90
2019-02-22T04:26:05.550Z,9.73
2019-02-22T04:28:32.227Z,9.50
2019-02-22T04:30:58.885Z,10.90
2019-02-22T04:33:25.542Z,9.00
2019-02-22T04:35:52.245Z,8.10
2019-02-22T04:38:19.013Z,10.23
2019-02-22T04:40:45.682Z,10.43
2019-02-22T04:43:12.442Z,9.57
2019-02-22T04:45:39.097Z,9.87
2019-02-22T04:48:05.838Z,11.50
2019-02-22T04:50:32.632Z,10.90
2019-02-22T04:52:59.587Z,11.03
2019-02-22T04:55:26.242Z,10.40
2019-02-22T04:57:52.900Z,11.40
2019-02-22T05:00:19.531Z,10.60
2019-02-22T05:02:46.354Z,12.63
2019-02-22T05:05:12.997Z,11.77
2019-02-22T05:07:39.836Z,12.13
2019-02-22T05:10:06.570Z,12.20
2019-02-22T05:12:33.260Z,13.27
2019-02-22T05:15:11.415Z,12.00
2019-02-22T05:17:28.505Z,12.07
2019-02-22T05:19:55.290Z,12.90
2019-02-22T05:22:21.944Z,10.90
2019-02-22T05:24:48.616Z,12.03
2019-02-22T05:27:15.377Z,12.70
2019-02-22T05:29:42.145Z,11.87
2019-02-22T05:32:08.878Z,11.90
2019-02-22T05:34:35.651Z,11.80
2019-02-22T05:37:02.306Z,11.00
2019-02-22T05:39:29.000Z,12.87
2019-02-22T05:41:55.887Z,12.20
2019-02-22T05:44:22.583Z,12.50
2019-02-22T05:47:00.022Z,11.30
2019-02-22T05:49:17.686Z,11.33
2019-02-22T05:51:44.335Z,12.77
2019-02-22T05:54:11.035Z,12.17
2019-02-22T05:56:37.716Z,11.63
2019-02-22T05:59:04.347Z,12.10
2019-02-22T06:01:31.114Z,12.83
2019-02-22T06:03:57.749Z,12.47
2019-02-22T06:06:24.463Z,12.43
2019-02-22T06:08:51.230Z,10.50
2019-02-22T06:11:17.861Z,11.70
2019-02-22T06:13:44.577Z,9.50
2019-02-22T06:16:11.228Z,13.00
2019-02-22T06:18:37.882Z,11.70
2019-02-22T06:21:04.548Z,11.67
2019-02-22T06:23:31.287Z,11.83
2019-02-22T06:25:57.937Z,11.27
2019-02-22T06:28:24.562Z,11.50
2019-02-22T06:30:51.257Z,12.40
2019-02-22T06:33:17.906Z,12.00
2019-02-22T06:35:44.604Z,12.80
2019-02-22T06:38:11.236Z,14.20
2019-02-22T06:40:38.040Z,12.10
2019-02-22T06:43:04.737Z,11.83
2019-02-22T06:45:31.366Z,9.93
2019-02-22T06:47:58.045Z,10.30
2019-02-22T06:50:33.660Z,11.77
2019-02-22T06:52:53.164Z,10.57
2019-02-22T06:55:19.820Z,11.97
2019-02-22T06:57:46.577Z,11.50
2019-02-22T07:00:13.250Z,11.30
2019-02-22T07:02:40.429Z,11.10
2019-02-22T07:05:07.090Z,13.53
2019-02-22T07:07:33.761Z,12.20
2019-02-22T07:10:00.393Z,10.93
2019-02-22T07:12:31.829Z,12.67
2019-02-22T07:14:58.534Z,11.97
2019-02-22T07:17:25.201Z,12.60
2019-02-22T07:19:51.885Z,12.03
2019-02-22T07:22:18.618Z,13.30
2019-02-22T07:24:45.286Z,12.80
2019-02-22T07:27:12.043Z,12.47
2019-02-22T07:29:38.663Z,14.53
2019-02-22T07:32:06.450Z,14.70
2019-02-22T07:34:33.265Z,11.83
2019-02-22T07:36:59.957Z,13.23
2019-02-22T07:39:28.113Z,13.70
2019-02-22T07:41:55.021Z,12.43
2019-02-22T07:44:21.712Z,13.67
2019-02-22T07:46:48.453Z,12.63
2019-02-22T07:49:23.157Z,13.37
2019-02-22T07:51:49.915Z,14.53
2019-02-22T07:54:16.568Z,13.80
2019-02-22T07:56:43.213Z,13.40
2019-02-22T07:59:09.887Z,14.00
2019-02-22T08:01:46.851Z,14.60
2019-02-22T08:04:04.986Z,14.07
2019-02-22T08:06:31.771Z,15.60
2019-02-22T08:08:58.521Z,15.10
2019-02-22T08:11:25.180Z,14.50
2019-02-22T08:13:51.866Z,14.87
2019-02-22T08:16:18.535Z,12.00
2019-02-22T08:18:45.277Z,16.20
2019-02-22T08:21:11.998Z,15.50
2019-02-22T08:23:38.601Z,14.73
2019-02-22T08:26:05.233Z,16.40
2019-02-22T08:28:32.007Z,15.33
2019-02-22T08:30:58.663Z,15.80
2019-02-22T08:33:25.364Z,15.70
2019-02-22T08:35:51.993Z,14.57
2019-02-22T08:38:18.765Z,15.67
2019-02-22T08:40:45.505Z,15.50
2019-02-22T08:43:12.175Z,16.33
2019-02-22T08:45:38.862Z,16.57
2019-02-22T08:48:05.494Z,14.40
2019-02-22T08:50:32.165Z,15.90
2019-02-22T08:52:58.806Z,15.60
2019-02-22T08:55:25.468Z,14.30
2019-02-22T08:57:52.121Z,15.20
2019-02-22T09:00:18.997Z,14.70
2019-02-22T09:02:45.623Z,17.77
2019-02-22T09:05:12.400Z,15.10
2019-02-22T09:07:39.145Z,16.47
2019-02-22T09:10:08.897Z,18.10
2019-02-22T09:12:35.569Z,16.47
2019-02-22T09:15:34.191Z,16.47
2019-02-22T09:17:59.895Z,17.67
2019-02-22T09:20:26.574Z,18.13
2019-02-22T09:22:53.246Z,16.90
2019-02-22T09:25:19.882Z,17.07
2019-02-22T09:27:46.571Z,18.13
2019-02-22T09:30:15.104Z,17.60
2019-02-22T09:32:41.830Z,15.90
2019-02-22T09:35:09.883Z,18.13
2019-02-22T09:37:36.730Z,19.50
2019-02-22T09:40:06.559Z,18.43
2019-02-22T09:42:33.233Z,20.00
2019-02-22T09:44:59.862Z,19.53
2019-02-22T09:47:26.558Z,19.20
2019-02-22T09:49:53.285Z,19.50
2019-02-22T09:52:19.962Z,20.73
2019-02-22T09:54:46.635Z,20.37
2019-02-22T09:57:13.402Z,18.60
2019-02-22T09:59:40.057Z,18.13
2019-02-22T10:02:06.741Z,17.83
2019-02-22T10:04:33.408Z,17.33
2019-02-22T10:07:00.062Z,17.10
2019-02-22T10:09:26.746Z,18.63
2019-02-22T10:11:53.365Z,18.17
2019-02-22T10:14:20.035Z,17.33
2019-02-22T10:16:47.114Z,14.93
2019-02-22T10:19:13.927Z,16.80
2019-02-22T10:21:40.649Z,16.10
2019-02-22T10:24:07.349Z,17.10
2019-02-22T10:26:34.002Z,17.23
2019-02-22T10:29:00.821Z,19.40
2019-02-22T10:31:27.449Z,18.20
2019-02-22T10:33:54.137Z,15.90
2019-02-22T10:36:20.826Z,13.07
2019-02-22T10:38:47.509Z,10.13
2019-02-22T10:41:14.130Z,9.87
2019-02-22T10:43:40.805Z,9.07
2019-02-22T10:46:07.474Z,6.27
2019-02-22T10:48:34.106Z,6.80
2019-02-22T10:51:00.785Z,6.10
2019-02-22T10:53:27.543Z,6.27
2019-02-22T10:55:54.196Z,6.00
2019-02-22T10:58:20.845Z,5.87
2019-02-22T11:00:47.515Z,5.53
2019-02-22T11:03:14.157Z,6.07
2019-02-22T11:05:40.827Z,5.70
2019-02-22T11:08:07.539Z,5.57
2019-02-22T11:10:34.182Z,6.00
2019-02-22T11:13:00.818Z,6.00
2019-02-22T11:15:27.626Z,5.43
2019-02-22T11:17:54.269Z,5.57
2019-02-22T11:20:20.904Z,5.13
2019-02-22T11:22:47.649Z,6.10
2019-02-22T11:25:15.537Z,5.20
2019-02-22T11:27:42.330Z,5.03
2019-02-22T11:30:11.199Z,4.97
2019-02-22T11:32:37.852Z,4.47
2019-02-22T11:35:06.010Z,5.40
2019-02-22T11:37:32.638Z,4.80
2019-02-22T11:39:59.307Z,4.47
2019-02-22T11:42:25.926Z,4.53
2019-02-22T11:44:52.606Z,4.17
2019-02-22T11:47:19.230Z,4.87
2019-02-22T11:49:45.905Z,4.87
2019-02-22T11:52:12.538Z,4.80
2019-02-22T11:54:39.234Z,4.50
2019-02-22T11:57:06.162Z,4.43
2019-02-22T11:59:32.856Z,4.20
2019-02-22T12:01:59.607Z,3.40
2019-02-22T12:04:26.289Z,4.60
2019-02-22T12:06:52.920Z,4.27
2019-02-22T12:09:19.612Z,4.40
2019-02-22T12:11:46.273Z,4.67
2019-02-22T12:14:13.097Z,3.93
2019-02-22T12:16:39.899Z,4.10
2019-02-22T12:19:06.633Z,4.50
2019-02-22T12:21:33.421Z,4.50
2019-02-22T12:24:00.118Z,3.63
2019-02-22T12:26:26.774Z,3.87
2019-02-22T12:28:53.431Z,3.60
2019-02-22T12:31:20.108Z,3.43
2019-02-22T12:33:46.745Z,3.30
2019-02-22T12:36:13.441Z,3.40
2019-02-22T12:38:40.181Z,3.73
2019-02-22T12:41:06.837Z,3.20
2019-02-22T12:43:33.498Z,3.37
2019-02-22T12:46:00.270Z,3.43
2019-02-22T12:48:26.899Z,3.60
2019-02-22T12:50:53.574Z,3.57
2019-02-22T12:53:20.206Z,3.30
2019-02-22T12:55:47.059Z,3.80
2019-02-22T12:58:13.728Z,4.37
2019-02-22T13:00:40.405Z,3.80
2019-02-22T13:03:07.157Z,3.70
2019-02-22T13:05:33.825Z,3.93
2019-02-22T13:08:00.516Z,3.83
2019-02-22T13:10:27.150Z,4.30
2019-02-22T13:12:53.816Z,3.83
2019-02-22T13:15:20.668Z,4.10
2019-02-22T13:17:47.304Z,4.63
2019-02-22T13:20:14.130Z,4.70
2019-02-22T13:22:41.101Z,4.10
2019-02-22T13:25:09.520Z,4.27
2019-02-22T13:27:36.403Z,3.93
2019-02-22T13:30:14.733Z,3.87
2019-02-22T13:32:41.578Z,5.53
2019-02-22T13:35:11.055Z,4.20
2019-02-22T13:37:37.664Z,4.70
2019-02-22T13:40:08.111Z,4.70
2019-02-22T13:42:34.843Z,4.70
2019-02-22T13:45:01.629Z,4.83
2019-02-22T13:47:28.477Z,3.90
2019-02-22T13:49:55.278Z,5.17
2019-02-22T13:52:21.970Z,4.43
2019-02-22T13:54:48.657Z,4.13
2019-02-22T13:57:15.429Z,4.77
2019-02-22T13:59:42.394Z,5.83
2019-02-22T14:02:09.202Z,5.90
2019-02-22T14:04:35.959Z,6.97
2019-02-22T14:07:02.745Z,5.70
2019-02-22T14:09:30.023Z,6.13
2019-02-22T14:11:56.958Z,6.60
2019-02-22T14:14:23.641Z,6.13
2019-02-22T14:16:50.552Z,6.23
2019-02-22T14:19:17.335Z,7.00
2019-02-22T14:21:43.962Z,5.97
2019-02-22T14:24:10.646Z,5.47
2019-02-22T14:26:37.273Z,6.07
2019-02-22T14:29:03.941Z,6.60
2019-02-22T14:31:30.580Z,6.80
2019-02-22T14:33:57.267Z,6.83
2019-02-22T14:36:43.773Z,6.53
2019-02-22T14:39:10.798Z,6.10
2019-02-22T14:41:37.624Z,4.70
2019-02-22T14:44:04.413Z,4.70
2019-02-22T14:46:31.031Z,4.30
2019-02-22T14:48:57.693Z,4.63
2019-02-22T14:51:24.360Z,4.07
2019-02-22T14:53:51.140Z,3.77
2019-02-22T14:56:17.749Z,3.87
2019-02-22T14:58:44.403Z,4.00
2019-02-22T15:01:11.181Z,3.70
2019-02-22T15:03:37.833Z,4.73
2019-02-22T15:06:04.602Z,4.30
2019-02-22T15:08:31.298Z,3.70
2019-02-22T15:10:57.992Z,4.87
2019-02-22T15:13:24.659Z,4.43
2019-02-22T15:16:01.811Z,4.33
2019-02-22T15:18:27.597Z,4.60
2019-02-22T15:20:54.336Z,4.20
2019-02-22T15:23:21.133Z,4.63
2019-02-22T15:25:47.913Z,4.40
2019-02-22T15:28:14.541Z,4.37
2019-02-22T15:30:41.227Z,4.57
2019-02-22T15:33:07.972Z,5.83
2019-02-22T15:35:34.824Z,4.97
2019-02-22T15:38:01.506Z,6.13
2019-02-22T15:40:28.218Z,6.57
2019-02-22T15:42:55.052Z,6.40
2019-02-22T15:45:21.720Z,6.90
2019-02-22T15:47:49.039Z,7.20
2019-02-22T15:50:17.048Z,7.17
2019-02-22T15:52:44.313Z,6.70
2019-02-22T15:55:14.445Z,7.57
2019-02-22T15:57:41.381Z,7.80
2019-02-22T16:00:23.496Z,7.90
2019-02-22T16:02:50.145Z,8.80
2019-02-22T16:05:18.688Z,8.00
2019-02-22T16:07:45.353Z,7.37
2019-02-22T16:10:12.182Z,7.50
2019-02-22T16:12:38.981Z,8.40
2019-02-22T16:15:08.118Z,8.33
2019-02-22T16:17:34.806Z,7.87
2019-02-22T16:20:01.604Z,8.00
2019-02-22T16:22:28.393Z,7.57
2019-02-22T16:24:55.046Z,7.70
2019-02-22T16:27:21.664Z,6.03
2019-02-22T16:29:48.328Z,6.60
2019-02-22T16:32:15.093Z,6.40
2019-02-22T16:34:43.796Z,7.00
2019-02-22T16:37:10.505Z,6.10
2019-02-22T16:39:37.203Z,5.93
2019-02-22T16:42:03.859Z,7.20
2019-02-22T16:44:30.713Z,6.37
2019-02-22T16:46:57.799Z,5.90
2019-02-22T16:49:24.765Z,7.20
2019-02-22T16:51:51.410Z,6.00
2019-02-22T16:54:18.142Z,5.97
2019-02-22T16:56:44.778Z,5.67
2019-02-22T16:59:11.451Z,6.20
2019-02-22T17:01:38.394Z,6.80
2019-02-22T17:04:05.170Z,5.50
2019-02-22T17:06:31.813Z,7.73
2019-02-22T17:08:58.481Z,6.60
2019-02-22T17:11:25.218Z,5.87
2019-02-22T17:13:51.927Z,5.20
2019-02-22T17:16:18.561Z,6.03
2019-02-22T17:18:45.409Z,5.60
2019-02-22T17:21:13.157Z,5.00
2019-02-22T17:23:39.725Z,5.50
2019-02-22T17:26:08.489Z,5.27
2019-02-22T17:28:35.189Z,5.57
2019-02-22T17:31:01.985Z,5.50
2019-02-22T17:33:28.573Z,4.90
2019-02-22T17:35:55.351Z,5.63
2019-02-22T17:38:22.041Z,5.70
2019-02-22T17:40:48.701Z,6.20
2019-02-22T17:43:15.325Z,6.20
2019-02-22T17:45:42.121Z,6.37
2019-02-22T17:48:08.752Z,6.50
2019-02-22T17:50:35.432Z,6.27
2019-02-22T17:53:02.091Z,7.20
2019-02-22T17:55:28.803Z,7.07
2019-02-22T17:57:55.817Z,5.50
2019-02-22T18:00:24.400Z,7.50
2019-02-22T18:02:51.201Z,7.80
2019-02-22T18:05:17.932Z,8.30
2019-02-22T18:07:44.673Z,7.60
2019-02-22T18:10:11.409Z,8.23
2019-02-22T18:12:38.205Z,10.20
2019-02-22T18:15:09.769Z,9.27
2019-02-22T18:17:36.651Z,9.83
2019-02-22T18:20:05.985Z,10.03
2019-02-22T18:22:32.625Z,10.53
2019-02-22T18:24:59.320Z,11.27
2019-02-22T18:27:25.960Z,12.17
2019-02-22T18:29:52.637Z,11.50
2019-02-22T18:32:19.491Z,11.53
2019-02-22T18:34:47.051Z,13.67
2019-02-22T18:37:13.691Z,12.00
2019-02-22T18:39:40.351Z,13.53
2019-02-22T18:42:07.108Z,13.30
2019-02-22T18:44:33.797Z,13.20
2019-02-22T18:47:00.519Z,12.33
2019-02-22T18:49:27.201Z,13.57
2019-02-22T18:51:53.865Z,15.20
2019-02-22T18:54:20.572Z,12.77
2019-02-22T18:56:47.234Z,12.63
2019-02-22T18:59:13.893Z,12.90
2019-02-22T19:01:40.653Z,11.07
2019-02-22T19:04:07.324Z,13.43
2019-02-22T19:06:34.103Z,12.13
2019-02-22T19:09:00.987Z,10.93
2019-02-22T19:11:27.639Z,11.20
2019-02-22T19:13:54.322Z,11.00
2019-02-22T19:16:21.015Z,9.53
2019-02-22T19:18:47.721Z,10.80
2019-02-22T19:21:14.454Z,11.30
2019-02-22T19:23:41.106Z,12.50
2019-02-22T19:26:07.798Z,11.53
2019-02-22T19:28:34.534Z,10.47
2019-02-22T19:31:01.220Z,10.53
2019-02-22T19:33:27.836Z,11.73
2019-02-22T19:35:54.535Z,13.17
2019-02-22T19:38:21.190Z,11.80
2019-02-22T19:40:48.211Z,10.97
2019-02-22T19:43:14.982Z,11.90
2019-02-22T19:45:41.749Z,11.97
2019-02-22T19:48:08.377Z,11.90
2019-02-22T19:50:41.332Z,11.37
2019-02-22T19:53:03.706Z,12.50
2019-02-22T19:55:30.477Z,15.27
2019-02-22T19:57:57.240Z,11.90
2019-02-22T20:00:23.917Z,12.30
2019-02-22T20:02:51.536Z,10.80
2019-02-22T20:05:18.150Z,10.67
2019-02-22T20:07:44.841Z,11.47
2019-02-22T20:10:18.523Z,10.37
2019-02-22T20:12:45.428Z,10.23
2019-02-22T20:15:13.955Z,9.67
2019-02-22T20:17:40.641Z,10.43
2019-02-22T20:20:10.597Z,11.20
2019-02-22T20:22:37.373Z,10.20
2019-02-22T20:25:04.777Z,10.80
2019-02-22T20:27:32.551Z,10.57
2019-02-22T20:29:59.250Z,9.40
2019-02-22T20:32:25.875Z,9.40
2019-02-22T20:34:52.582Z,9.23
2019-02-22T20:37:19.335Z,11.00
2019-02-22T20:39:47.575Z,11.10
2019-02-22T20:42:14.834Z,11.73
2019-02-22T20:44:43.326Z,11.20
2019-02-22T20:47:10.908Z,12.00
2019-02-22T20:49:39.560Z,10.50
2019-02-22T20:52:06.812Z,12.50
2019-02-22T20:54:34.063Z,12.07
2019-02-22T20:57:01.930Z,12.27
2019-02-22T20:59:30.000Z,12.67
2019-02-22T21:01:59.916Z,12.60
2019-02-22T21:04:26.581Z,12.70
2019-02-22T21:06:53.265Z,13.30
2019-02-22T21:09:20.031Z,12.37
2019-02-22T21:11:46.717Z,14.77
2019-02-22T21:14:13.394Z,12.63
2019-02-22T21:16:40.085Z,13.83
2019-02-22T21:19:06.828Z,13.10
2019-02-22T21:21:33.936Z,13.27
2019-02-22T21:24:00.599Z,13.00
2019-02-22T21:26:27.368Z,13.27
2019-02-22T21:28:54.134Z,13.13
2019-02-22T21:31:20.792Z,11.77
2019-02-22T21:33:48.659Z,12.40
2019-02-22T21:36:15.606Z,12.20
2019-02-22T21:38:42.208Z,12.23
2019-02-22T21:41:09.232Z,12.13
2019-02-22T21:43:35.894Z,11.87
2019-02-22T21:46:02.530Z,13.10
2019-02-22T21:48:29.210Z,11.83
2019-02-22T21:50:55.843Z,11.73
2019-02-22T21:53:25.110Z,13.30
2019-02-22T21:55:51.008Z,11.10
2019-02-22T21:58:17.725Z,11.97
2019-02-22T22:00:44.461Z,13.17
2019-02-22T22:03:11.145Z,11.43
2019-02-22T22:05:37.899Z,11.73
2019-02-22T22:08:04.689Z,12.20
2019-02-22T22:10:31.352Z,11.13
2019-02-22T22:12:58.169Z,11.53
2019-02-22T22:15:24.904Z,11.13
2019-02-22T22:17:51.581Z,10.90
2019-02-22T22:20:18.253Z,10.93
2019-02-22T22:22:44.892Z,10.67
2019-02-22T22:25:12.957Z,11.27
2019-02-22T22:27:39.710Z,10.63
2019-02-22T22:30:09.066Z,11.03
2019-02-22T22:32:35.809Z,10.60
2019-02-22T22:35:02.489Z,10.60
2019-02-22T22:37:29.233Z,8.40
2019-02-22T22:39:55.959Z,8.40
2019-02-22T22:42:22.768Z,10.00
2019-02-22T22:44:49.549Z,9.20
2019-02-22T22:47:16.221Z,9.87
2019-02-22T22:49:43.844Z,9.73
2019-02-22T22:52:10.649Z,9.90
2019-02-22T22:54:37.401Z,9.90
2019-02-22T22:57:04.078Z,10.37
2019-02-22T22:59:30.713Z,10.17
2019-02-22T23:01:57.510Z,10.50
2019-02-22T23:04:24.173Z,11.37
2019-02-22T23:06:50.822Z,10.90
2019-02-22T23:09:18.741Z,11.50
2019-02-22T23:11:45.533Z,10.40
2019-02-22T23:14:12.317Z,11.87
2019-02-22T23:16:39.006Z,11.60
2019-02-22T23:19:05.734Z,12.30
2019-02-22T23:21:32.513Z,13.03
2019-02-22T23:23:59.321Z,12.13
2019-02-22T23:26:25.953Z,11.47
2019-02-22T23:28:52.632Z,11.70
2019-02-22T23:31:19.383Z,11.90
2019-02-22T23:33:46.158Z,12.20
2019-02-22T23:36:13.111Z,12.20
2019-02-22T23:38:39.791Z,12.87
2019-02-22T23:41:06.566Z,11.73
2019-02-22T23:43:33.258Z,11.57
2019-02-22T23:46:00.072Z,12.20
2019-02-22T23:48:26.803Z,12.40
2019-02-22T23:50:53.499Z,13.27
2019-02-22T23:53:20.137Z,12.43
2019-02-22T23:55:46.915Z,11.70
2019-02-22T23:58:13.543Z,11.87
